Kona International At Keahole Airport Kailua/Kona US
ICAO: PHKO
IATA: KOA
Category: Medium
Scheduled Services:

Elevation: 47 ft
TransAlt. 18000 ft.

Airport Communications:
ATIS:127.4
CLNC DEL:121.9
HONOLULU CNTR:126
CTAF:120.3
HONOLULU:123.6
TWR:120.3

PHKO Zoom In..

If you have problems with the map follow the link
https://www.worldairports.se/pages/airport.php?
ICAO=PHKO

Runways:

(A) RW 17 length 11000 ft width 150 ft
ILS 109.70 / hdg 174

(B) RW 35 length 11000 ft width 150 ft
---- / hdg 354

Location; PHKO
Day. 10 / Time. 01.53 Zulu
* Altimeter: 29.89
* Temperature: 27° c. 80.6°f.
* Wind from: 210° Speed 09 kn.
Dewpoint: 20° c.
Visibility: 10 Statute Miles.
Clouds: Scattered 5000 ft.

PHKO 100153Z 21009KT 10SM SCT050 27/20 A2989 RMK AO2 SLP120 T02720200


Wind From 210°
Speed 09 kn.

 
 
jpsmedia worldairports.se 2019   terms of use